Time;durP1;ratioP1;P1;durP2;ratioP2;P2;SDS_P1;SDS_P2;PMS_P1;PMS_P2;Temp;Humidity;BMP_temperature;BMP_pressure;BME280_temperature;BME280_humidity;BME280_pressure;Samples;Min_cycle;Max_cycle;Signal;HPM_P1;HPM_P2
2022/09/24 00:01:34;;;;;;;6.70;2.80;;;;;;;11.01;51.92;100487.55;117322;1186;23583;-59
2022/09/24 00:04:04;;;;;;;6.70;3.00;;;;;;;11.03;51.98;100485.59;117263;1186;22929;-71
2022/09/24 00:06:36;;;;;;;4.80;3.20;;;;;;;11.03;51.99;100480.52;117245;1189;23649;-71
2022/09/24 00:09:04;;;;;;;5.70;3.10;;;;;;;11.01;52.02;100480.18;117374;1186;21881;-61
2022/09/24 00:11:32;;;;;;;5.30;3.20;;;;;;;10.98;52.13;100481.98;117285;1186;21866;-71
2022/09/24 00:13:59;;;;;;;5.70;3.40;;;;;;;10.95;52.17;100477.61;117197;1186;24266;-60
2022/09/24 00:16:30;;;;;;;9.80;3.40;;;;;;;10.94;52.17;100473.41;117198;1185;21969;-72
2022/09/24 00:18:57;;;;;;;5.40;3.90;;;;;;;10.94;52.14;100475.00;117263;1186;22927;-61
2022/09/24 00:21:26;;;;;;;9.00;3.60;;;;;;;10.94;52.36;100473.77;117137;1188;23573;-72
2022/09/24 00:23:56;;;;;;;6.20;3.80;;;;;;;10.93;52.28;100476.05;117137;1189;22809;-60
2022/09/24 00:29:09;;;;;;;6.70;4.10;;;;;;;10.88;52.45;100474.01;117204;1186;23646;-71
2022/09/24 00:31:36;;;;;;;5.70;3.80;;;;;;;10.85;52.25;100473.69;117318;1186;22060;-72
2022/09/24 00:34:04;;;;;;;7.10;3.90;;;;;;;10.84;52.54;100474.75;117253;1182;23656;-60
2022/09/24 00:36:32;;;;;;;5.80;4.00;;;;;;;10.81;52.65;100480.41;117298;1186;22658;-72
2022/09/24 00:38:59;;;;;;;6.60;4.10;;;;;;;10.79;52.64;100473.60;117325;1185;24884;-59
2022/09/24 00:41:28;;;;;;;7.80;4.20;;;;;;;10.79;52.97;100475.88;117244;1186;23475;-60
2022/09/24 00:43:55;;;;;;;7.10;4.50;;;;;;;10.78;52.94;100471.50;117263;1186;22924;-61
2022/09/24 00:46:29;;;;;;;6.90;4.20;;;;;;;10.78;53.08;100466.77;117280;1186;23555;-60
2022/09/24 00:49:16;;;;;;;6.90;4.20;;;;;;;10.77;53.04;100465.36;117244;1186;21855;-71
2022/09/24 00:51:46;;;;;;;5.90;3.80;;;;;;;10.78;53.13;100462.38;117354;1186;21927;-60
2022/09/24 00:54:21;;;;;;;5.10;3.50;;;;;;;10.78;53.15;100461.85;117272;1186;22925;-59
2022/09/24 00:56:49;;;;;;;5.70;3.90;;;;;;;10.75;53.22;100459.09;117327;1186;22085;-72
2022/09/24 00:59:19;;;;;;;6.60;3.80;;;;;;;10.74;53.07;100459.25;117200;1187;23472;-72
2022/09/24 01:01:46;;;;;;;6.40;4.10;;;;;;;10.75;53.23;100458.73;117142;1187;21858;-60
2022/09/24 01:04:13;;;;;;;7.60;3.90;;;;;;;10.75;53.02;100459.08;117312;1186;22925;-59
2022/09/24 01:06:41;;;;;;;6.00;3.70;;;;;;;10.74;53.26;100458.73;117234;1189;23553;-72
2022/09/24 01:09:08;;;;;;;6.50;3.40;;;;;;;10.71;52.98;100462.45;117445;1186;23523;-71
2022/09/24 01:12:05;;;;;;;6.50;3.70;;;;;;;10.68;52.96;100456.16;117367;1185;23567;-60
2022/09/24 01:14:58;;;;;;;5.40;3.50;;;;;;;10.66;53.02;100456.71;117309;1186;23576;-59
2022/09/24 01:17:43;;;;;;;6.00;4.10;;;;;;;10.63;53.15;100456.22;117236;1188;23451;-60
2022/09/24 01:20:32;;;;;;;5.00;3.30;;;;;;;10.60;53.12;100451.89;117237;1186;21865;-71
2022/09/24 01:23:23;;;;;;;5.50;3.40;;;;;;;10.56;53.13;100450.34;117202;1186;23472;-71
2022/09/24 01:26:18;;;;;;;6.20;3.30;;;;;;;10.54;53.25;100458.08;117149;1186;23517;-61
2022/09/24 01:28:56;;;;;;;4.50;2.80;;;;;;;10.52;53.32;100452.48;117180;1186;23461;-59
2022/09/24 01:31:45;;;;;;;4.60;3.00;;;;;;;10.50;53.42;100451.96;117294;1186;23479;-60
2022/09/24 01:34:14;;;;;;;5.00;3.30;;;;;;;10.48;53.58;100450.60;117304;1186;23822;-72
2022/09/24 01:36:42;;;;;;;5.10;2.70;;;;;;;10.47;53.50;100449.90;117283;1186;23484;-60
2022/09/24 01:39:09;;;;;;;4.90;3.30;;;;;;;10.48;53.61;100452.00;117283;1186;23532;-60
2022/09/24 01:41:37;;;;;;;5.30;3.80;;;;;;;10.48;53.79;100449.36;117124;1188;24199;-71
2022/09/24 01:44:06;;;;;;;5.50;3.50;;;;;;;10.51;53.87;100452.66;117114;1183;21852;-71
2022/09/24 01:46:39;;;;;;;5.60;3.40;;;;;;;10.55;53.91;100456.85;117359;1185;23550;-61
2022/09/24 01:49:07;;;;;;;7.10;3.60;;;;;;;10.58;53.85;100455.75;117272;1185;24261;-60
2022/09/24 01:51:47;;;;;;;5.50;3.60;;;;;;;10.62;53.96;100458.33;117137;1186;24233;-71
2022/09/24 01:54:41;;;;;;;6.20;3.80;;;;;;;10.64;53.89;100464.27;117320;1186;23548;-71
2022/09/24 01:57:14;;;;;;;5.90;3.90;;;;;;;10.66;53.91;100470.41;117309;1186;24226;-72
2022/09/24 01:59:56;;;;;;;5.80;3.80;;;;;;;10.64;53.89;100468.66;117354;1189;21872;-59
2022/09/24 02:02:27;;;;;;;5.20;3.50;;;;;;;10.64;53.94;100465.51;117329;1185;24302;-71
2022/09/24 02:04:59;;;;;;;8.40;3.90;;;;;;;10.63;53.76;100464.98;117335;1185;23586;-71
2022/09/24 02:07:32;;;;;;;5.50;3.90;;;;;;;10.65;53.80;100468.83;117230;1185;24175;-59
2022/09/24 02:09:59;;;;;;;5.80;3.90;;;;;;;10.66;53.86;100471.63;117078;1189;22930;-60
2022/09/24 02:12:36;;;;;;;6.30;3.50;;;;;;;10.71;53.67;100471.40;117087;1189;23576;-71
2022/09/24 02:15:22;;;;;;;4.80;3.60;;;;;;;10.73;53.46;100470.32;117140;1186;23484;-71
2022/09/24 02:17:52;;;;;;;4.70;3.00;;;;;;;10.72;53.54;100472.45;117374;1186;23025;-71
2022/09/24 02:20:20;;;;;;;;;;;;;;;10.69;53.59;100472.81;117248;1186;24180;-72
2022/09/24 02:22:48;;;;;;;4.90;3.30;;;;;;;10.67;53.58;100469.52;117357;1186;21854;-59
2022/09/24 02:25:23;;;;;;;5.60;3.40;;;;;;;10.67;53.66;100475.30;117329;1186;24274;-59
2022/09/24 02:27:51;;;;;;;6.00;3.60;;;;;;;10.68;53.84;100476.34;117211;1186;23445;-59
2022/09/24 02:30:17;;;;;;;6.20;4.30;;;;;;;10.67;54.19;100477.40;117201;1187;23585;-72
2022/09/24 02:32:45;;;;;;;4.50;3.30;;;;;;;10.68;54.29;100481.61;117191;1187;23602;-70
2022/09/24 02:35:12;;;;;;;5.30;3.60;;;;;;;10.68;54.35;100482.83;117113;1188;23551;-59
2022/09/24 02:37:42;;;;;;;7.80;3.60;;;;;;;10.68;54.43;100483.02;117276;1186;23557;-70
2022/09/24 02:40:13;;;;;;;7.10;3.90;;;;;;;10.69;54.21;100488.79;117186;1186;21853;-59
2022/09/24 02:42:41;;;;;;;7.90;3.90;;;;;;;10.71;54.21;100491.05;117166;1186;24190;-59
2022/09/24 02:45:09;;;;;;;7.20;3.70;;;;;;;10.72;54.21;100496.48;117092;1186;24226;-60
2022/09/24 02:47:37;;;;;;;5.50;3.70;;;;;;;10.70;54.26;100499.48;117158;1186;21866;-70
2022/09/24 02:50:06;;;;;;;9.40;3.80;;;;;;;10.67;54.36;100498.47;117219;1185;23602;-70
2022/09/24 02:52:32;;;;;;;6.20;4.00;;;;;;;10.64;54.21;100500.60;117225;1186;21833;-59
2022/09/24 02:55:00;;;;;;;10.90;4.20;;;;;;;10.63;54.23;100505.00;117254;1186;23823;-69
2022/09/24 02:57:27;;;;;;;7.20;4.00;;;;;;;10.63;54.34;100505.70;117206;1188;21854;-60
2022/09/24 02:59:54;;;;;;;5.30;3.80;;;;;;;10.62;54.35;100506.59;117143;1186;23401;-59
2022/09/24 03:02:21;;;;;;;5.40;3.80;;;;;;;10.59;54.41;100509.09;117077;1187;24953;-71
2022/09/24 03:04:50;;;;;;;7.00;4.60;;;;;;;10.55;54.61;100512.47;117184;1186;21885;-69
2022/09/24 03:07:21;;;;;;;7.30;4.50;;;;;;;10.51;54.77;100510.39;117096;1186;21854;-72
2022/09/24 03:09:48;;;;;;;8.50;4.40;;;;;;;10.48;54.85;100507.44;117284;1186;23517;-60
2022/09/24 03:12:15;;;;;;;6.40;4.10;;;;;;;10.46;54.83;100508.15;117567;1186;23446;-72
2022/09/24 03:14:44;;;;;;;11.40;4.40;;;;;;;10.43;54.97;100506.96;117298;1188;23576;-72
2022/09/24 03:17:11;;;;;;;10.30;4.90;;;;;;;10.41;55.11;100506.79;117195;1188;23630;-72
2022/09/24 03:19:40;;;;;;;6.90;4.30;;;;;;;10.41;54.99;100508.55;117206;1188;23555;-61
2022/09/24 03:22:07;;;;;;;8.10;4.20;;;;;;;10.42;54.73;100508.36;117323;1186;22927;-61
2022/09/24 03:24:34;;;;;;;7.70;4.70;;;;;;;10.42;54.79;100505.55;117115;1187;24143;-60
2022/09/24 03:27:02;;;;;;;7.10;4.70;;;;;;;10.39;54.89;100504.88;117301;1186;24181;-61
2022/09/24 03:32:15;;;;;;;7.00;4.80;;;;;;;10.33;54.99;100514.21;117238;1186;23448;-60
2022/09/24 03:34:42;;;;;;;6.50;4.20;;;;;;;10.29;55.10;100512.33;117325;1186;24158;-72
2022/09/24 03:37:10;;;;;;;7.80;5.10;;;;;;;10.25;55.00;100519.71;117413;1186;23553;-70
2022/09/24 03:39:37;;;;;;;6.80;5.00;;;;;;;10.21;55.04;100515.01;117190;1186;23557;-60
2022/09/24 03:42:04;;;;;;;14.10;4.30;;;;;;;10.18;54.94;100517.85;117284;1185;24239;-69
2022/09/24 03:44:31;;;;;;;22.30;5.00;;;;;;;10.23;54.84;100517.80;117324;1185;24226;-69
2022/09/24 03:46:58;;;;;;;9.50;4.90;;;;;;;10.30;54.62;100516.34;117183;1185;23637;-69
2022/09/24 03:49:26;;;;;;;7.00;4.00;;;;;;;10.32;54.95;100515.81;117182;1186;24155;-60
2022/09/24 03:51:53;;;;;;;7.50;4.70;;;;;;;10.25;54.44;100519.55;117968;1186;24159;-60
2022/09/24 03:54:20;;;;;;;9.50;4.70;;;;;;;10.12;54.57;100519.48;117180;1185;23592;-60
2022/09/24 03:56:47;;;;;;;6.80;4.50;;;;;;;10.00;54.75;100517.29;118204;1186;22339;-71
2022/09/24 03:59:14;;;;;;;5.60;4.20;;;;;;;9.92;54.78;100524.36;119034;1185;21860;-71
2022/09/24 04:01:42;;;;;;;8.60;5.20;;;;;;;9.85;54.84;100524.59;119298;1186;21759;-61
2022/09/24 04:04:14;;;;;;;13.60;4.50;;;;;;;9.78;54.88;100524.63;119152;1185;24325;-72
2022/09/24 04:06:41;;;;;;;7.10;4.40;;;;;;;9.72;54.89;100524.51;117146;1186;21888;-60
2022/09/24 04:09:09;;;;;;;6.90;4.30;;;;;;;9.66;55.32;100522.60;117064;1186;23557;-60
2022/09/24 04:11:36;;;;;;;8.80;5.20;;;;;;;9.62;54.98;100521.41;117292;1189;21854;-71
2022/09/24 04:14:05;;;;;;;11.30;5.40;;;;;;;9.58;55.04;100523.36;117293;1185;22808;-71
2022/09/24 04:16:33;;;;;;;12.20;5.60;;;;;;;9.53;55.01;100526.19;117250;1186;23580;-71
2022/09/24 04:19:00;;;;;;;12.30;5.20;;;;;;;9.50;55.35;100527.60;117324;1186;22911;-71
2022/09/24 04:21:29;;;;;;;11.00;4.90;;;;;;;9.50;55.29;100529.70;117321;1185;21902;-70
2022/09/24 04:23:56;;;;;;;10.20;5.60;;;;;;;9.50;55.53;100538.46;117171;1185;24234;-60
2022/09/24 04:26:24;;;;;;;9.00;5.50;;;;;;;9.52;55.54;100540.73;117263;1186;23450;-71
2022/09/24 04:28:51;;;;;;;10.60;6.20;;;;;;;9.55;55.56;100542.12;117335;1184;21860;-60
2022/09/24 04:31:19;;;;;;;11.00;5.40;;;;;;;9.58;55.68;100546.13;117154;1186;23490;-71
2022/09/24 04:33:46;;;;;;;8.40;5.50;;;;;;;9.64;56.02;100543.65;117306;1185;22985;-71
2022/09/24 04:36:13;;;;;;;8.50;5.70;;;;;;;9.70;56.41;100545.89;117199;1186;21857;-60
2022/09/24 04:38:41;;;;;;;7.60;5.50;;;;;;;9.79;56.32;100547.40;117313;1185;23485;-59
2022/09/24 04:41:08;;;;;;;11.20;5.70;;;;;;;9.87;56.62;100547.36;117357;1186;23544;-70
2022/09/24 04:43:35;;;;;;;12.50;6.50;;;;;;;9.96;56.61;100547.29;117248;1185;24267;-60
2022/09/24 04:46:04;;;;;;;9.30;5.70;;;;;;;10.05;56.66;100551.09;117161;1186;23593;-61
2022/09/24 04:48:31;;;;;;;10.30;6.30;;;;;;;10.14;56.75;100549.98;117215;1186;22170;-71
2022/09/24 04:51:02;;;;;;;9.60;6.50;;;;;;;10.25;56.89;100548.48;117259;1185;24169;-61
2022/09/24 04:53:29;;;;;;;8.70;5.60;;;;;;;10.35;56.99;100550.68;117313;1182;21857;-70
2022/09/24 04:55:56;;;;;;;9.40;5.90;;;;;;;10.45;56.93;100548.86;117117;1186;24256;-70
2022/09/24 04:58:23;;;;;;;8.00;5.40;;;;;;;10.56;57.03;100550.52;117161;1186;24240;-58
2022/09/24 05:00:50;;;;;;;10.30;5.40;;;;;;;10.67;57.35;100547.08;117325;1186;23587;-60
2022/09/24 05:03:21;;;;;;;8.70;5.70;;;;;;;10.79;57.41;100544.69;117316;1185;23477;-71
2022/09/24 05:05:51;;;;;;;8.30;5.20;;;;;;;10.90;57.64;100544.21;117116;1185;23670;-60
2022/09/24 05:08:18;;;;;;;8.40;5.10;;;;;;;11.00;57.43;100539.54;117192;1186;23491;-60
2022/09/24 05:10:45;;;;;;;9.60;6.50;;;;;;;11.10;57.26;100545.37;117205;1185;24229;-61
2022/09/24 05:13:13;;;;;;;9.30;6.20;;;;;;;11.19;57.20;100542.13;117258;1185;23528;-72
2022/09/24 05:15:41;;;;;;;8.60;5.50;;;;;;;11.29;57.00;100544.80;118098;1186;22620;-60
2022/09/24 05:18:10;;;;;;;9.90;6.10;;;;;;;11.38;56.81;100549.61;117028;1186;23618;-61
2022/09/24 05:20:37;;;;;;;7.40;5.10;;;;;;;11.50;56.97;100551.21;119379;1184;22146;-61
2022/09/24 05:23:04;;;;;;;7.00;5.20;;;;;;;11.59;57.10;100548.80;119212;1185;21803;-72
2022/09/24 05:25:31;;;;;;;6.80;4.50;;;;;;;11.67;56.88;100544.48;119217;1182;21810;-72
2022/09/24 05:27:58;;;;;;;7.00;4.50;;;;;;;11.80;56.58;100548.69;119253;1184;21776;-72
2022/09/24 05:30:25;;;;;;;5.50;3.80;;;;;;;11.94;56.77;100547.42;119434;1184;21824;-73
2022/09/24 05:32:52;;;;;;;5.60;4.10;;;;;;;12.06;56.42;100543.06;117265;1185;22823;-59
2022/09/24 05:35:20;;;;;;;8.60;3.90;;;;;;;12.19;56.60;100542.67;117055;1187;23614;-59
2022/09/24 05:37:48;;;;;;;7.50;3.80;;;;;;;12.33;56.30;100542.80;117228;1186;23077;-68
2022/09/24 05:43:03;;;;;;;6.10;3.70;;;;;;;12.70;56.03;100537.75;116993;1187;23573;-70
2022/09/24 05:45:30;;;;;;;4.80;3.40;;;;;;;12.87;55.93;100541.83;117365;1185;22992;-58
2022/09/24 05:47:58;;;;;;;5.00;3.90;;;;;;;13.06;55.71;100546.04;117238;1185;23448;-58
2022/09/24 05:50:27;;;;;;;4.20;3.00;;;;;;;13.22;55.41;100549.95;117634;1187;24280;-58
2022/09/24 05:52:54;;;;;;;4.40;3.20;;;;;;;13.34;55.07;100550.77;118324;1182;23007;-58
2022/09/24 05:55:21;;;;;;;5.30;3.70;;;;;;;13.41;54.90;100554.52;117116;1186;24181;-70
2022/09/24 05:57:48;;;;;;;4.60;3.10;;;;;;;13.52;55.15;100558.52;117153;1186;23461;-58
2022/09/24 06:00:15;;;;;;;6.60;3.60;;;;;;;13.69;54.81;100556.92;117147;1186;23569;-58
2022/09/24 06:02:43;;;;;;;7.00;3.70;;;;;;;13.78;54.54;100558.47;117022;1186;22527;-58
2022/09/24 06:05:12;;;;;;;5.40;3.80;;;;;;;13.82;54.33;100557.14;117074;1186;23462;-58
2022/09/24 06:07:39;;;;;;;11.40;4.20;;;;;;;13.88;54.46;100557.02;117114;1186;21859;-58
2022/09/24 06:10:09;;;;;;;14.00;3.40;;;;;;;14.08;54.48;100559.71;117083;1186;24154;-66
2022/09/24 06:12:36;;;;;;;6.80;3.40;;;;;;;14.23;54.08;100557.96;117002;1186;24250;-73
2022/09/24 06:15:05;;;;;;;5.10;3.30;;;;;;;14.31;53.71;100554.93;117175;1186;23557;-72
2022/09/24 06:17:32;;;;;;;5.90;3.50;;;;;;;14.36;53.63;100556.55;117146;1186;22992;-72
2022/09/24 06:19:59;;;;;;;11.50;3.70;;;;;;;14.40;53.43;100555.94;116978;1186;24279;-60
2022/09/24 06:22:27;;;;;;;5.70;3.90;;;;;;;14.43;53.34;100557.61;117367;1186;23539;-69
2022/09/24 06:24:55;;;;;;;5.10;3.50;;;;;;;14.51;53.34;100558.48;117360;1185;23376;-69
2022/09/24 06:27:23;;;;;;;5.20;3.10;;;;;;;14.61;53.28;100558.23;117305;1186;22856;-61
2022/09/24 06:29:50;;;;;;;5.00;3.20;;;;;;;14.72;53.05;100566.47;117213;1185;24280;-72
2022/09/24 06:32:18;;;;;;;5.40;3.00;;;;;;;14.80;52.93;100570.65;117277;1185;22032;-71
2022/09/24 06:34:46;;;;;;;4.20;2.70;;;;;;;14.87;52.93;100571.17;117385;1184;23553;-72
2022/09/24 06:37:14;;;;;;;6.40;2.60;;;;;;;15.02;52.87;100577.66;117397;1185;23576;-61
2022/09/24 06:39:41;;;;;;;4.60;3.30;;;;;;;15.18;52.75;100577.58;117284;1185;24207;-71
2022/09/24 06:42:09;;;;;;;10.00;2.90;;;;;;;15.40;52.67;100573.59;117078;1186;24180;-71
2022/09/24 06:44:36;;;;;;;11.70;3.10;;;;;;;15.57;52.22;100573.98;117072;1189;24224;-60
2022/09/24 06:47:03;;;;;;;5.40;2.70;;;;;;;15.72;52.10;100569.80;117118;1186;24222;-73
2022/09/24 06:49:31;;;;;;;7.10;3.90;;;;;;;15.92;52.18;100574.34;117230;1185;23475;-73
2022/09/24 06:52:01;;;;;;;5.00;3.50;;;;;;;16.11;51.78;100571.11;117378;1185;24154;-71
2022/09/24 06:54:29;;;;;;;6.00;3.40;;;;;;;16.25;51.56;100577.20;117351;1185;24175;-59
2022/09/24 06:56:57;;;;;;;13.60;4.20;;;;;;;16.33;51.06;100573.05;118178;1185;22924;-71
2022/09/24 06:59:24;;;;;;;5.30;3.50;;;;;;;16.34;50.76;100576.55;117322;1185;24238;-59
2022/09/24 07:01:51;;;;;;;5.00;2.90;;;;;;;16.42;50.83;100578.77;117185;1186;23557;-69
2022/09/24 07:04:19;;;;;;;4.40;2.80;;;;;;;16.55;50.88;100581.72;117194;1186;23583;-59
2022/09/24 07:09:32;;;;;;;4.60;2.70;;;;;;;16.62;49.89;100580.40;117093;1187;21967;-59
2022/09/24 07:12:03;;;;;;;4.50;2.70;;;;;;;16.65;50.15;100579.94;117049;1186;23542;-72
2022/09/24 07:14:32;;;;;;;3.50;2.50;;;;;;;16.74;49.82;100582.13;117120;1186;23570;-71
2022/09/24 07:16:59;;;;;;;4.40;2.80;;;;;;;16.84;50.12;100583.35;117291;1185;23640;-60
2022/09/24 07:19:26;;;;;;;4.80;2.60;;;;;;;16.98;49.60;100579.71;117181;1186;24296;-61
2022/09/24 07:21:53;;;;;;;8.50;2.70;;;;;;;17.16;49.75;100578.73;117061;1186;24271;-72
2022/09/24 07:24:21;;;;;;;3.60;2.20;;;;;;;17.42;49.58;100579.55;117090;1186;22810;-59
2022/09/24 07:26:49;;;;;;;6.10;2.60;;;;;;;17.62;49.39;100580.56;117129;1187;22662;-72
2022/09/24 07:29:17;;;;;;;8.30;3.10;;;;;;;17.81;49.05;100583.02;117364;1185;22690;-61
2022/09/24 07:31:45;;;;;;;5.20;2.50;;;;;;;17.99;48.83;100578.95;117200;1187;22622;-60
2022/09/24 07:34:14;;;;;;;3.90;2.30;;;;;;;18.13;48.36;100582.13;117442;1186;22764;-73
2022/09/24 07:36:43;;;;;;;7.70;2.60;;;;;;;18.16;47.93;100583.97;117125;1186;21876;-61
2022/09/24 07:39:13;;;;;;;4.30;2.40;;;;;;;18.11;47.47;100582.07;117360;1187;21980;-62
2022/09/24 07:41:41;;;;;;;3.40;2.30;;;;;;;18.08;47.65;100579.19;117014;1186;23109;-71
2022/09/24 07:44:09;;;;;;;3.90;1.60;;;;;;;18.03;47.13;100576.70;117195;1186;21853;-72
2022/09/24 07:46:36;;;;;;;4.40;2.20;;;;;;;18.12;47.64;100583.42;117223;1186;21881;-72
2022/09/24 07:49:03;;;;;;;5.30;1.90;;;;;;;18.24;47.36;100580.48;116967;1187;23652;-61
2022/09/24 07:51:32;;;;;;;4.80;2.10;;;;;;;18.38;46.77;100575.64;117158;1182;23579;-71
2022/09/24 07:53:59;;;;;;;5.00;2.20;;;;;;;18.42;46.48;100580.08;117080;1191;22716;-71
2022/09/24 07:56:26;;;;;;;6.60;2.50;;;;;;;18.41;46.27;100577.79;116897;1187;23578;-61
2022/09/24 07:58:53;;;;;;;4.80;2.30;;;;;;;18.44;46.37;100576.63;117015;1186;23691;-60
2022/09/24 08:01:20;;;;;;;8.30;2.40;;;;;;;18.49;46.31;100580.52;117192;1187;23579;-72
2022/09/24 08:03:50;;;;;;;7.20;2.60;;;;;;;18.52;45.91;100580.21;117205;1186;23592;-73
2022/09/24 08:06:18;;;;;;;10.90;3.20;;;;;;;18.52;46.38;100582.16;117180;1189;22932;-74
2022/09/24 08:08:48;;;;;;;5.10;2.00;;;;;;;18.64;46.57;100576.48;117000;1187;24316;-73
2022/09/24 08:11:16;;;;;;;4.30;2.00;;;;;;;18.92;46.40;100573.88;117212;1186;23590;-72
2022/09/24 08:13:44;;;;;;;5.70;2.50;;;;;;;19.14;45.91;100573.63;117084;1187;23627;-73
2022/09/24 08:16:12;;;;;;;4.90;2.50;;;;;;;19.37;45.57;100577.39;117044;1187;24187;-72
2022/09/24 08:18:39;;;;;;;2.80;1.80;;;;;;;19.48;45.11;100577.63;117080;1187;22931;-61
2022/09/24 08:21:08;;;;;;;7.40;2.40;;;;;;;19.47;45.01;100576.91;117271;1186;24185;-71
2022/09/24 08:23:35;;;;;;;5.70;2.30;;;;;;;19.57;45.11;100576.50;117200;1186;21879;-61
2022/09/24 08:26:03;;;;;;;3.00;1.60;;;;;;;19.69;44.90;100575.05;117094;1187;23460;-72
2022/09/24 08:28:32;;;;;;;3.10;1.70;;;;;;;19.75;44.72;100577.08;117168;1187;23612;-60
2022/09/24 08:31:03;;;;;;;4.10;2.20;;;;;;;19.75;44.37;100571.03;117368;1185;21908;-69
2022/09/24 08:33:31;;;;;;;3.10;1.60;;;;;;;19.60;44.01;100574.05;117217;1186;24164;-72
2022/09/24 08:35:59;;;;;;;3.60;1.90;;;;;;;19.53;43.61;100580.93;117184;1186;23483;-71
2022/09/24 08:38:26;;;;;;;14.10;2.30;;;;;;;19.58;43.77;100573.08;117310;1185;24230;-72
2022/09/24 08:41:01;;;;;;;3.70;1.40;;;;;;;19.60;43.22;100574.38;117360;1185;24273;-70
2022/09/24 08:43:51;;;;;;;2.50;1.50;;;;;;;19.63;43.22;100577.65;117196;1186;23570;-71
2022/09/24 08:49:16;;;;;;;40.40;24.60;;;;;;;19.57;43.52;100579.35;117330;1185;22468;-61
2022/09/24 08:52:02;;;;;;;39.10;23.00;;;;;;;19.46;43.31;100583.77;117360;1185;21852;-61
2022/09/24 08:54:30;;;;;;;15.40;11.50;;;;;;;19.39;43.06;100588.52;117130;1188;23630;-61
2022/09/24 08:56:57;;;;;;;14.50;10.20;;;;;;;19.37;43.35;100590.39;117283;1185;23564;-70
2022/09/24 08:59:29;;;;;;;42.80;27.60;;;;;;;19.29;43.32;100591.47;117007;1187;23580;-60
2022/09/24 09:02:59;;;;;;;9.40;6.70;;;;;;;19.18;43.41;100595.70;116933;1189;21869;-61
2022/09/24 09:05:53;;;;;;;32.00;19.50;;;;;;;19.02;43.97;100600.67;116715;1190;23561;-60
2022/09/24 09:08:32;;;;;;;33.40;19.30;;;;;;;18.97;44.30;100598.58;116607;1190;22138;-61
2022/09/24 09:11:20;;;;;;;46.50;22.70;;;;;;;18.99;43.84;100600.78;116946;1186;21924;-68
2022/09/24 09:13:51;;;;;;;28.00;15.50;;;;;;;18.94;44.18;100596.04;117059;1186;22931;-60
2022/09/24 09:16:24;;;;;;;22.80;10.10;;;;;;;18.94;44.16;100594.06;117068;1187;23458;-59
2022/09/24 09:19:03;;;;;;;21.30;9.50;;;;;;;19.07;44.28;100594.73;117102;1186;23557;-60
2022/09/24 09:21:36;;;;;;;18.30;10.50;;;;;;;19.27;43.86;100594.73;117104;1186;23555;-60
2022/09/24 09:24:04;;;;;;;21.70;10.30;;;;;;;19.48;43.90;100593.64;117147;1186;22102;-60
2022/09/24 09:26:31;;;;;;;8.70;5.40;;;;;;;19.73;43.74;100588.75;117081;1188;23571;-60
2022/09/24 09:28:59;;;;;;;11.10;5.60;;;;;;;20.01;43.49;100583.19;117095;1187;23576;-60
2022/09/24 09:31:44;;;;;;;7.40;4.60;;;;;;;20.19;42.92;100581.77;117075;1186;21880;-60
2022/09/24 09:34:17;;;;;;;24.40;10.90;;;;;;;20.46;43.01;100578.67;117116;1184;23034;-72
2022/09/24 09:36:52;;;;;;;11.70;5.10;;;;;;;20.65;42.66;100580.01;117031;1186;23130;-70
2022/09/24 09:39:36;;;;;;;24.60;9.80;;;;;;;20.85;42.58;100574.57;117040;1186;21867;-71
2022/09/24 09:42:06;;;;;;;10.60;5.00;;;;;;;21.07;41.94;100572.51;117033;1186;23557;-60
2022/09/24 09:44:41;;;;;;;5.60;2.70;;;;;;;21.40;41.25;100572.55;117067;1190;23557;-71
2022/09/24 09:47:26;;;;;;;5.40;2.30;;;;;;;21.53;40.88;100565.95;117168;1186;23253;-61
2022/09/24 09:49:55;;;;;;;19.10;6.10;;;;;;;21.61;40.70;100562.31;117072;1187;23581;-72
2022/09/24 09:52:25;;;;;;;13.90;5.30;;;;;;;21.66;40.07;100565.21;117166;1187;21870;-61
2022/09/24 09:54:53;;;;;;;9.40;4.20;;;;;;;21.66;39.85;100565.08;117070;1187;22929;-70
2022/09/24 09:57:21;;;;;;;14.40;4.20;;;;;;;21.58;39.74;100561.95;117184;1187;23583;-61
2022/09/24 09:59:50;;;;;;;11.20;4.00;;;;;;;21.54;39.04;100561.98;117040;1187;21859;-69
2022/09/24 10:02:29;;;;;;;9.40;3.20;;;;;;;21.40;39.52;100562.02;117351;1185;21858;-60
2022/09/24 10:05:04;;;;;;;5.20;2.50;;;;;;;21.28;39.52;100553.58;117043;1183;22674;-61
2022/09/24 10:07:31;;;;;;;5.90;2.10;;;;;;;21.23;38.99;100553.08;117058;1189;23683;-60
2022/09/24 10:10:17;;;;;;;11.90;4.00;;;;;;;21.32;39.29;100555.11;117241;1186;22844;-70
2022/09/24 10:12:44;;;;;;;6.80;2.70;;;;;;;21.35;39.07;100558.73;116941;1186;23573;-60
2022/09/24 10:15:15;;;;;;;7.40;2.50;;;;;;;21.16;38.63;100560.40;117101;1187;22836;-61
2022/09/24 10:17:42;;;;;;;2.90;1.70;;;;;;;20.91;38.37;100560.52;117174;1186;23557;-61
2022/09/24 10:20:26;;;;;;;6.00;2.10;;;;;;;20.77;39.27;100560.30;117090;1186;23627;-61
2022/09/24 10:23:05;;;;;;;4.60;1.90;;;;;;;20.62;38.20;100558.22;117138;1186;23697;-70
2022/09/24 10:25:35;;;;;;;5.70;2.20;;;;;;;20.41;37.97;100558.20;117148;1186;22608;-61
2022/09/24 10:30:57;;;;;;;8.50;2.90;;;;;;;20.06;38.73;100561.19;117131;1186;22089;-61
2022/09/24 10:33:25;;;;;;;8.70;2.20;;;;;;;19.97;39.02;100564.33;117114;1186;21860;-70
2022/09/24 10:36:03;;;;;;;4.80;2.20;;;;;;;19.94;39.18;100561.63;117079;1187;22927;-70
2022/09/24 10:38:31;;;;;;;4.20;1.60;;;;;;;19.89;38.95;100567.52;117234;1186;21868;-70
2022/09/24 10:40:58;;;;;;;6.00;1.90;;;;;;;19.84;38.31;100568.30;117069;1186;22611;-70
2022/09/24 10:43:25;;;;;;;3.90;1.60;;;;;;;19.75;38.11;100569.06;117043;1187;23634;-61
2022/09/24 10:46:02;;;;;;;3.00;1.70;;;;;;;19.71;38.39;100568.53;117013;1187;23579;-60
2022/09/24 10:48:43;;;;;;;6.10;1.70;;;;;;;19.78;38.60;100563.41;117193;1186;22822;-70
2022/09/24 10:51:39;;;;;;;3.90;1.90;;;;;;;20.14;38.53;100561.55;117097;1186;23650;-69
2022/09/24 10:54:29;;;;;;;4.40;2.20;;;;;;;20.63;37.92;100562.13;117153;1186;23627;-60
2022/09/24 10:56:58;;;;;;;3.50;1.40;;;;;;;21.08;37.19;100561.74;117090;1185;21859;-62
2022/09/24 10:59:31;;;;;;;105.00;6.70;;;;;;;21.41;36.54;100548.90;117069;1188;22642;-59
2022/09/24 11:02:50;;;;;;;13.70;1.80;;;;;;;21.64;36.64;100556.95;117185;1186;24309;-75
2022/09/24 11:05:21;;;;;;;6.10;1.30;;;;;;;21.83;36.17;100562.19;116529;1191;22938;-60
2022/09/24 11:07:54;;;;;;;3.40;1.40;;;;;;;21.68;36.09;100565.48;117141;1187;21857;-77
2022/09/24 11:10:22;;;;;;;8.70;1.60;;;;;;;21.35;35.58;100566.22;117193;1186;23554;-60
2022/09/24 11:13:18;;;;;;;2.80;1.40;;;;;;;21.18;36.55;100569.09;117205;1186;23599;-59
2022/09/24 11:16:04;;;;;;;117.50;11.20;;;;;;;21.28;36.70;100568.89;117287;1186;22179;-74
2022/09/24 11:18:39;;;;;;;11.80;1.60;;;;;;;21.37;36.08;100568.40;117166;1186;23632;-59
2022/09/24 11:21:12;;;;;;;2.90;1.20;;;;;;;21.26;34.54;100566.52;117057;1186;21867;-60
2022/09/24 11:24:15;;;;;;;8.40;1.30;;;;;;;21.00;34.68;100569.13;116991;1187;23654;-76
2022/09/24 11:26:52;;;;;;;5.60;1.30;;;;;;;20.68;35.12;100572.70;117479;1186;23820;-60
2022/09/24 11:29:27;;;;;;;3.60;1.10;;;;;;;20.42;35.18;100573.88;117116;1186;22929;-72
2022/09/24 11:32:18;;;;;;;4.70;1.20;;;;;;;20.18;35.59;100579.69;117083;1187;22872;-59
2022/09/24 11:35:05;;;;;;;2.80;1.00;;;;;;;20.00;35.62;100576.45;117167;1186;23579;-73
2022/09/24 11:37:38;;;;;;;7.00;1.50;;;;;;;19.94;36.04;100580.14;117171;1187;21916;-59
2022/09/24 11:40:08;;;;;;;2.70;1.20;;;;;;;19.89;36.61;100580.89;117122;1186;21922;-63
2022/09/24 11:42:52;;;;;;;4.20;1.40;;;;;;;19.85;36.12;100584.06;117280;1186;21905;-77
2022/09/24 11:45:28;;;;;;;7.70;1.10;;;;;;;19.78;35.75;100582.98;117062;1186;23547;-60
2022/09/24 11:48:15;;;;;;;7.40;1.70;;;;;;;19.85;36.10;100586.21;117055;1186;22844;-74
2022/09/24 11:50:53;;;;;;;4.70;1.40;;;;;;;20.03;36.17;100570.95;117116;1183;21860;-59
2022/09/24 11:53:56;;;;;;;3.00;1.30;;;;;;;20.22;35.69;100569.48;117230;1186;21945;-74